sensor_id;sensor_type;location;lat;lon;timestamp;P1;durP1;ratioP1;P2;durP2;ratioP2
6376;SDS011;3221;48.858;10.128;2022-09-23T00:01:11;3.93;;;3.53;;
6376;SDS011;3221;48.858;10.128;2022-09-23T00:03:44;3.37;;;3.07;;
6376;SDS011;3221;48.858;10.128;2022-09-23T00:06:14;5.10;;;3.30;;
6376;SDS011;3221;48.858;10.128;2022-09-23T00:08:46;4.37;;;3.80;;
6376;SDS011;3221;48.858;10.128;2022-09-23T00:11:17;3.40;;;3.10;;
6376;SDS011;3221;48.858;10.128;2022-09-23T00:13:47;3.57;;;3.27;;
6376;SDS011;3221;48.858;10.128;2022-09-23T00:16:17;3.60;;;3.30;;
6376;SDS011;3221;48.858;10.128;2022-09-23T00:18:47;3.80;;;3.03;;
6376;SDS011;3221;48.858;10.128;2022-09-23T00:21:19;3.60;;;3.30;;
6376;SDS011;3221;48.858;10.128;2022-09-23T00:23:47;3.83;;;3.00;;
6376;SDS011;3221;48.858;10.128;2022-09-23T00:26:15;4.97;;;3.17;;
6376;SDS011;3221;48.858;10.128;2022-09-23T00:28:44;5.77;;;3.30;;
6376;SDS011;3221;48.858;10.128;2022-09-23T00:31:18;4.10;;;3.70;;
6376;SDS011;3221;48.858;10.128;2022-09-23T00:33:51;3.90;;;3.37;;
6376;SDS011;3221;48.858;10.128;2022-09-23T00:36:26;4.00;;;3.47;;
6376;SDS011;3221;48.858;10.128;2022-09-23T00:38:54;3.80;;;3.40;;
6376;SDS011;3221;48.858;10.128;2022-09-23T00:41:22;3.47;;;3.17;;
6376;SDS011;3221;48.858;10.128;2022-09-23T00:43:53;3.63;;;3.33;;
6376;SDS011;3221;48.858;10.128;2022-09-23T00:46:39;3.83;;;3.50;;
6376;SDS011;3221;48.858;10.128;2022-09-23T00:49:11;4.43;;;3.73;;
6376;SDS011;3221;48.858;10.128;2022-09-23T00:52:07;6.13;;;3.97;;
6376;SDS011;3221;48.858;10.128;2022-09-23T00:54:51;4.63;;;4.10;;
6376;SDS011;3221;48.858;10.128;2022-09-23T00:57:23;4.07;;;3.67;;
6376;SDS011;3221;48.858;10.128;2022-09-23T00:59:52;4.90;;;4.30;;
6376;SDS011;3221;48.858;10.128;2022-09-23T01:02:20;6.17;;;4.20;;
6376;SDS011;3221;48.858;10.128;2022-09-23T01:04:48;4.80;;;4.40;;
6376;SDS011;3221;48.858;10.128;2022-09-23T01:07:16;5.03;;;4.53;;
6376;SDS011;3221;48.858;10.128;2022-09-23T01:09:55;4.90;;;4.40;;
6376;SDS011;3221;48.858;10.128;2022-09-23T01:15:24;6.40;;;4.27;;
6376;SDS011;3221;48.858;10.128;2022-09-23T01:20:57;5.60;;;4.87;;
6376;SDS011;3221;48.858;10.128;2022-09-23T01:31:22;5.43;;;4.60;;
6376;SDS011;3221;48.858;10.128;2022-09-23T01:36:52;5.80;;;4.67;;
6376;SDS011;3221;48.858;10.128;2022-09-23T01:39:37;6.50;;;4.67;;
6376;SDS011;3221;48.858;10.128;2022-09-23T01:44:55;5.43;;;4.93;;
6376;SDS011;3221;48.858;10.128;2022-09-23T01:47:36;5.63;;;5.10;;
6376;SDS011;3221;48.858;10.128;2022-09-23T01:50:11;5.93;;;4.97;;
6376;SDS011;3221;48.858;10.128;2022-09-23T01:53:06;5.77;;;5.17;;
6376;SDS011;3221;48.858;10.128;2022-09-23T01:55:41;5.93;;;5.03;;
6376;SDS011;3221;48.858;10.128;2022-09-23T01:58:49;6.03;;;5.30;;
6376;SDS011;3221;48.858;10.128;2022-09-23T02:01:11;7.03;;;5.30;;
6376;SDS011;3221;48.858;10.128;2022-09-23T02:06:48;5.93;;;5.33;;
6376;SDS011;3221;48.858;10.128;2022-09-23T02:09:22;5.73;;;5.13;;
6376;SDS011;3221;48.858;10.128;2022-09-23T02:11:56;5.90;;;5.30;;
6376;SDS011;3221;48.858;10.128;2022-09-23T02:14:55;5.83;;;5.00;;
6376;SDS011;3221;48.858;10.128;2022-09-23T02:17:32;5.73;;;5.10;;
6376;SDS011;3221;48.858;10.128;2022-09-23T02:20:07;5.40;;;4.90;;
6376;SDS011;3221;48.858;10.128;2022-09-23T02:23:28;6.30;;;5.27;;
6376;SDS011;3221;48.858;10.128;2022-09-23T02:26:07;5.93;;;4.93;;
6376;SDS011;3221;48.858;10.128;2022-09-23T02:29:04;5.60;;;4.90;;
6376;SDS011;3221;48.858;10.128;2022-09-23T02:31:40;6.67;;;4.97;;
6376;SDS011;3221;48.858;10.128;2022-09-23T02:34:14;6.37;;;5.07;;
6376;SDS011;3221;48.858;10.128;2022-09-23T02:45:32;5.50;;;5.00;;
6376;SDS011;3221;48.858;10.128;2022-09-23T02:48:23;5.63;;;4.93;;
6376;SDS011;3221;48.858;10.128;2022-09-23T02:50:51;5.83;;;5.00;;
6376;SDS011;3221;48.858;10.128;2022-09-23T02:53:18;5.63;;;4.77;;
6376;SDS011;3221;48.858;10.128;2022-09-23T02:55:47;5.23;;;4.73;;
6376;SDS011;3221;48.858;10.128;2022-09-23T02:58:17;5.97;;;5.37;;
6376;SDS011;3221;48.858;10.128;2022-09-23T03:00:58;5.87;;;5.27;;
6376;SDS011;3221;48.858;10.128;2022-09-23T03:06:45;6.50;;;5.20;;
6376;SDS011;3221;48.858;10.128;2022-09-23T03:09:28;5.40;;;4.90;;
6376;SDS011;3221;48.858;10.128;2022-09-23T03:15:01;5.97;;;5.33;;
6376;SDS011;3221;48.858;10.128;2022-09-23T03:20:34;5.20;;;4.70;;
6376;SDS011;3221;48.858;10.128;2022-09-23T03:23:05;5.60;;;5.00;;
6376;SDS011;3221;48.858;10.128;2022-09-23T03:25:35;5.20;;;4.67;;
6376;SDS011;3221;48.858;10.128;2022-09-23T03:28:04;5.80;;;5.17;;
6376;SDS011;3221;48.858;10.128;2022-09-23T03:30:35;6.67;;;4.80;;
6376;SDS011;3221;48.858;10.128;2022-09-23T03:33:03;5.07;;;4.57;;
6376;SDS011;3221;48.858;10.128;2022-09-23T03:35:34;5.57;;;4.80;;
6376;SDS011;3221;48.858;10.128;2022-09-23T03:38:28;6.27;;;4.73;;
6376;SDS011;3221;48.858;10.128;2022-09-23T03:40:59;6.33;;;5.03;;
6376;SDS011;3221;48.858;10.128;2022-09-23T03:43:31;5.50;;;5.00;;
6376;SDS011;3221;48.858;10.128;2022-09-23T03:46:04;5.23;;;4.73;;
6376;SDS011;3221;48.858;10.128;2022-09-23T03:48:34;5.37;;;4.87;;
6376;SDS011;3221;48.858;10.128;2022-09-23T03:51:05;5.10;;;4.60;;
6376;SDS011;3221;48.858;10.128;2022-09-23T03:53:44;5.20;;;4.70;;
6376;SDS011;3221;48.858;10.128;2022-09-23T03:56:11;5.40;;;4.90;;
6376;SDS011;3221;48.858;10.128;2022-09-23T03:58:38;6.67;;;4.87;;
6376;SDS011;3221;48.858;10.128;2022-09-23T04:01:06;5.13;;;4.63;;
6376;SDS011;3221;48.858;10.128;2022-09-23T04:03:33;5.20;;;4.70;;
6376;SDS011;3221;48.858;10.128;2022-09-23T04:06:00;5.20;;;4.70;;
6376;SDS011;3221;48.858;10.128;2022-09-23T04:08:27;5.10;;;4.60;;
6376;SDS011;3221;48.858;10.128;2022-09-23T04:10:58;4.40;;;4.00;;
6376;SDS011;3221;48.858;10.128;2022-09-23T04:13:27;4.40;;;4.00;;
6376;SDS011;3221;48.858;10.128;2022-09-23T04:15:54;4.60;;;4.20;;
6376;SDS011;3221;48.858;10.128;2022-09-23T04:18:21;4.73;;;4.27;;
6376;SDS011;3221;48.858;10.128;2022-09-23T04:20:48;4.50;;;4.10;;
6376;SDS011;3221;48.858;10.128;2022-09-23T04:23:15;4.10;;;3.70;;
6376;SDS011;3221;48.858;10.128;2022-09-23T04:25:46;4.00;;;3.67;;
6376;SDS011;3221;48.858;10.128;2022-09-23T04:28:13;4.83;;;3.40;;
6376;SDS011;3221;48.858;10.128;2022-09-23T04:30:40;3.93;;;3.50;;
6376;SDS011;3221;48.858;10.128;2022-09-23T04:33:09;4.00;;;3.70;;
6376;SDS011;3221;48.858;10.128;2022-09-23T04:35:37;4.63;;;3.50;;
6376;SDS011;3221;48.858;10.128;2022-09-23T04:38:05;3.70;;;3.30;;
6376;SDS011;3221;48.858;10.128;2022-09-23T04:40:32;3.80;;;3.50;;
6376;SDS011;3221;48.858;10.128;2022-09-23T04:43:00;4.53;;;3.50;;
6376;SDS011;3221;48.858;10.128;2022-09-23T04:45:27;4.17;;;3.77;;
6376;SDS011;3221;48.858;10.128;2022-09-23T04:47:55;4.60;;;4.03;;
6376;SDS011;3221;48.858;10.128;2022-09-23T04:50:24;3.70;;;3.40;;
6376;SDS011;3221;48.858;10.128;2022-09-23T04:52:54;4.10;;;3.70;;
6376;SDS011;3221;48.858;10.128;2022-09-23T04:55:21;4.23;;;3.83;;
6376;SDS011;3221;48.858;10.128;2022-09-23T04:57:48;3.87;;;3.40;;
6376;SDS011;3221;48.858;10.128;2022-09-23T05:00:15;4.70;;;3.70;;
6376;SDS011;3221;48.858;10.128;2022-09-23T05:02:46;4.20;;;3.80;;
6376;SDS011;3221;48.858;10.128;2022-09-23T05:05:14;4.23;;;3.83;;
6376;SDS011;3221;48.858;10.128;2022-09-23T05:07:46;4.20;;;3.80;;
6376;SDS011;3221;48.858;10.128;2022-09-23T05:10:14;3.87;;;3.50;;
6376;SDS011;3221;48.858;10.128;2022-09-23T05:12:41;4.70;;;3.60;;
6376;SDS011;3221;48.858;10.128;2022-09-23T05:15:08;4.20;;;3.70;;
6376;SDS011;3221;48.858;10.128;2022-09-23T05:17:35;4.17;;;3.70;;
6376;SDS011;3221;48.858;10.128;2022-09-23T05:20:02;4.43;;;4.03;;
6376;SDS011;3221;48.858;10.128;2022-09-23T05:22:30;4.77;;;4.10;;
6376;SDS011;3221;48.858;10.128;2022-09-23T05:24:57;4.27;;;3.87;;
6376;SDS011;3221;48.858;10.128;2022-09-23T05:27:27;5.90;;;4.30;;
6376;SDS011;3221;48.858;10.128;2022-09-23T05:29:54;5.00;;;4.23;;
6376;SDS011;3221;48.858;10.128;2022-09-23T05:32:20;5.07;;;4.17;;
6376;SDS011;3221;48.858;10.128;2022-09-23T05:34:48;4.77;;;4.30;;
6376;SDS011;3221;48.858;10.128;2022-09-23T05:37:14;4.80;;;4.33;;
6376;SDS011;3221;48.858;10.128;2022-09-23T05:39:41;5.67;;;5.17;;
6376;SDS011;3221;48.858;10.128;2022-09-23T05:42:08;5.37;;;4.40;;
6376;SDS011;3221;48.858;10.128;2022-09-23T05:44:38;5.57;;;4.93;;
6376;SDS011;3221;48.858;10.128;2022-09-23T05:47:04;5.73;;;5.23;;
6376;SDS011;3221;48.858;10.128;2022-09-23T05:49:31;5.17;;;4.50;;
6376;SDS011;3221;48.858;10.128;2022-09-23T05:52:18;5.73;;;5.10;;
6376;SDS011;3221;48.858;10.128;2022-09-23T05:54:45;6.00;;;5.40;;
6376;SDS011;3221;48.858;10.128;2022-09-23T05:57:12;5.60;;;5.10;;
6376;SDS011;3221;48.858;10.128;2022-09-23T05:59:39;6.70;;;6.00;;
6376;SDS011;3221;48.858;10.128;2022-09-23T06:02:07;6.63;;;5.90;;
6376;SDS011;3221;48.858;10.128;2022-09-23T06:04:34;5.90;;;5.30;;
6376;SDS011;3221;48.858;10.128;2022-09-23T06:07:01;6.53;;;5.83;;
6376;SDS011;3221;48.858;10.128;2022-09-23T06:09:29;7.30;;;6.10;;
6376;SDS011;3221;48.858;10.128;2022-09-23T06:12:01;6.83;;;6.13;;
6376;SDS011;3221;48.858;10.128;2022-09-23T06:14:29;7.73;;;6.57;;
6376;SDS011;3221;48.858;10.128;2022-09-23T06:16:56;9.37;;;6.50;;
6376;SDS011;3221;48.858;10.128;2022-09-23T06:19:23;7.17;;;5.83;;
6376;SDS011;3221;48.858;10.128;2022-09-23T06:21:50;6.97;;;6.27;;
6376;SDS011;3221;48.858;10.128;2022-09-23T06:24:17;7.23;;;6.50;;
6376;SDS011;3221;48.858;10.128;2022-09-23T06:26:49;7.67;;;6.87;;
6376;SDS011;3221;48.858;10.128;2022-09-23T06:29:16;7.10;;;6.40;;
6376;SDS011;3221;48.858;10.128;2022-09-23T06:31:43;7.63;;;6.83;;
6376;SDS011;3221;48.858;10.128;2022-09-23T06:34:11;8.77;;;6.57;;
6376;SDS011;3221;48.858;10.128;2022-09-23T06:36:43;14.57;;;6.83;;
6376;SDS011;3221;48.858;10.128;2022-09-23T06:39:14;9.87;;;6.70;;
6376;SDS011;3221;48.858;10.128;2022-09-23T06:41:42;7.27;;;6.50;;
6376;SDS011;3221;48.858;10.128;2022-09-23T06:44:12;7.43;;;6.63;;
6376;SDS011;3221;48.858;10.128;2022-09-23T06:46:40;8.53;;;7.07;;
6376;SDS011;3221;48.858;10.128;2022-09-23T06:49:07;7.93;;;6.93;;
6376;SDS011;3221;48.858;10.128;2022-09-23T06:51:34;8.67;;;6.77;;
6376;SDS011;3221;48.858;10.128;2022-09-23T06:54:02;8.23;;;6.70;;
6376;SDS011;3221;48.858;10.128;2022-09-23T06:56:29;7.67;;;6.57;;
6376;SDS011;3221;48.858;10.128;2022-09-23T06:59:03;8.10;;;6.67;;
6376;SDS011;3221;48.858;10.128;2022-09-23T07:01:30;7.90;;;6.47;;
6376;SDS011;3221;48.858;10.128;2022-09-23T07:03:57;7.53;;;6.47;;
6376;SDS011;3221;48.858;10.128;2022-09-23T07:06:25;7.53;;;6.60;;
6376;SDS011;3221;48.858;10.128;2022-09-23T07:08:52;6.97;;;6.07;;
6376;SDS011;3221;48.858;10.128;2022-09-23T07:11:19;6.83;;;6.03;;
6376;SDS011;3221;48.858;10.128;2022-09-23T07:13:47;6.83;;;5.50;;
6376;SDS011;3221;48.858;10.128;2022-09-23T07:16:15;6.33;;;5.73;;
6376;SDS011;3221;48.858;10.128;2022-09-23T07:18:42;6.03;;;5.40;;
6376;SDS011;3221;48.858;10.128;2022-09-23T07:21:11;6.07;;;5.40;;
6376;SDS011;3221;48.858;10.128;2022-09-23T07:23:41;7.90;;;5.40;;
6376;SDS011;3221;48.858;10.128;2022-09-23T07:26:08;5.80;;;5.00;;
6376;SDS011;3221;48.858;10.128;2022-09-23T07:28:35;6.53;;;4.70;;
6376;SDS011;3221;48.858;10.128;2022-09-23T07:31:07;5.77;;;5.10;;
6376;SDS011;3221;48.858;10.128;2022-09-23T07:33:37;5.53;;;4.97;;
6376;SDS011;3221;48.858;10.128;2022-09-23T07:36:05;6.47;;;5.10;;
6376;SDS011;3221;48.858;10.128;2022-09-23T07:38:34;5.87;;;4.80;;
6376;SDS011;3221;48.858;10.128;2022-09-23T07:41:06;6.13;;;5.30;;
6376;SDS011;3221;48.858;10.128;2022-09-23T07:43:34;8.50;;;4.90;;
6376;SDS011;3221;48.858;10.128;2022-09-23T07:46:06;5.47;;;4.73;;
6376;SDS011;3221;48.858;10.128;2022-09-23T07:48:36;6.33;;;5.20;;
6376;SDS011;3221;48.858;10.128;2022-09-23T07:51:08;6.10;;;5.03;;
6376;SDS011;3221;48.858;10.128;2022-09-23T07:53:36;5.37;;;4.83;;
6376;SDS011;3221;48.858;10.128;2022-09-23T07:56:03;6.70;;;5.27;;
6376;SDS011;3221;48.858;10.128;2022-09-23T07:58:32;4.93;;;4.40;;
6376;SDS011;3221;48.858;10.128;2022-09-23T08:01:07;8.37;;;4.87;;
6376;SDS011;3221;48.858;10.128;2022-09-23T08:03:35;5.10;;;4.60;;
6376;SDS011;3221;48.858;10.128;2022-09-23T08:06:07;6.10;;;4.57;;
6376;SDS011;3221;48.858;10.128;2022-09-23T08:08:39;5.07;;;4.37;;
6376;SDS011;3221;48.858;10.128;2022-09-23T08:11:10;5.40;;;4.80;;
6376;SDS011;3221;48.858;10.128;2022-09-23T08:13:38;5.10;;;4.43;;
6376;SDS011;3221;48.858;10.128;2022-09-23T08:16:06;5.23;;;4.13;;
6376;SDS011;3221;48.858;10.128;2022-09-23T08:18:33;4.40;;;4.00;;
6376;SDS011;3221;48.858;10.128;2022-09-23T08:21:00;5.20;;;4.23;;
6376;SDS011;3221;48.858;10.128;2022-09-23T08:23:27;4.73;;;4.23;;
6376;SDS011;3221;48.858;10.128;2022-09-23T08:25:59;5.07;;;4.37;;
6376;SDS011;3221;48.858;10.128;2022-09-23T08:28:28;5.07;;;4.57;;
6376;SDS011;3221;48.858;10.128;2022-09-23T08:30:55;4.67;;;3.90;;
6376;SDS011;3221;48.858;10.128;2022-09-23T08:33:22;4.33;;;3.93;;
6376;SDS011;3221;48.858;10.128;2022-09-23T08:35:50;5.37;;;4.00;;
6376;SDS011;3221;48.858;10.128;2022-09-23T08:38:18;4.50;;;3.30;;
6376;SDS011;3221;48.858;10.128;2022-09-23T08:40:46;3.90;;;3.50;;
6376;SDS011;3221;48.858;10.128;2022-09-23T08:43:25;4.63;;;3.67;;
6376;SDS011;3221;48.858;10.128;2022-09-23T08:45:55;3.37;;;3.07;;
6376;SDS011;3221;48.858;10.128;2022-09-23T08:48:35;3.50;;;3.20;;
6376;SDS011;3221;48.858;10.128;2022-09-23T08:51:11;3.63;;;2.50;;
6376;SDS011;3221;48.858;10.128;2022-09-23T08:53:41;3.77;;;2.90;;
6376;SDS011;3221;48.858;10.128;2022-09-23T08:56:12;3.47;;;2.57;;
6376;SDS011;3221;48.858;10.128;2022-09-23T09:01:40;4.37;;;2.70;;
6376;SDS011;3221;48.858;10.128;2022-09-23T09:15:02;6.93;;;2.40;;
6376;SDS011;3221;48.858;10.128;2022-09-23T09:17:36;2.40;;;2.20;;
6376;SDS011;3221;48.858;10.128;2022-09-23T09:23:42;2.90;;;1.97;;
6376;SDS011;3221;48.858;10.128;2022-09-23T09:26:16;4.13;;;2.37;;
6376;SDS011;3221;48.858;10.128;2022-09-23T09:29:23;3.17;;;2.20;;
6376;SDS011;3221;48.858;10.128;2022-09-23T09:32:06;4.97;;;2.50;;
6376;SDS011;3221;48.858;10.128;2022-09-23T09:34:50;2.83;;;2.43;;
6376;SDS011;3221;48.858;10.128;2022-09-23T09:40:10;3.23;;;2.50;;
6376;SDS011;3221;48.858;10.128;2022-09-23T09:42:40;3.60;;;2.40;;
6376;SDS011;3221;48.858;10.128;2022-09-23T09:48:31;2.40;;;2.20;;
6376;SDS011;3221;48.858;10.128;2022-09-23T09:51:18;2.30;;;2.10;;
6376;SDS011;3221;48.858;10.128;2022-09-23T09:53:47;2.50;;;2.30;;
6376;SDS011;3221;48.858;10.128;2022-09-23T09:56:18;2.53;;;2.33;;
6376;SDS011;3221;48.858;10.128;2022-09-23T09:59:00;2.30;;;2.10;;
6376;SDS011;3221;48.858;10.128;2022-09-23T10:01:36;3.00;;;2.27;;
6376;SDS011;3221;48.858;10.128;2022-09-23T10:04:04;3.03;;;2.00;;
6376;SDS011;3221;48.858;10.128;2022-09-23T10:07:03;2.97;;;2.10;;
6376;SDS011;3221;48.858;10.128;2022-09-23T10:09:34;2.90;;;2.00;;
6376;SDS011;3221;48.858;10.128;2022-09-23T10:12:15;2.93;;;2.37;;
6376;SDS011;3221;48.858;10.128;2022-09-23T10:14:45;2.27;;;2.07;;
6376;SDS011;3221;48.858;10.128;2022-09-23T10:17:21;2.37;;;2.17;;
6376;SDS011;3221;48.858;10.128;2022-09-23T10:19:53;3.50;;;2.20;;
6376;SDS011;3221;48.858;10.128;2022-09-23T10:22:36;2.30;;;2.10;;
6376;SDS011;3221;48.858;10.128;2022-09-23T10:25:23;3.67;;;2.37;;
6376;SDS011;3221;48.858;10.128;2022-09-23T10:27:52;2.77;;;2.10;;
6376;SDS011;3221;48.858;10.128;2022-09-23T10:32:53;2.13;;;2.00;;
6376;SDS011;3221;48.858;10.128;2022-09-23T10:35:23;2.70;;;2.37;;
6376;SDS011;3221;48.858;10.128;2022-09-23T10:40:31;3.03;;;2.07;;
6376;SDS011;3221;48.858;10.128;2022-09-23T11:03:45;2.47;;;2.13;;
6376;SDS011;3221;48.858;10.128;2022-09-23T11:06:40;3.23;;;2.50;;
6376;SDS011;3221;48.858;10.128;2022-09-23T11:09:37;3.77;;;2.53;;
6376;SDS011;3221;48.858;10.128;2022-09-23T11:27:58;3.70;;;2.50;;
6376;SDS011;3221;48.858;10.128;2022-09-23T11:30:53;2.87;;;2.40;;
6376;SDS011;3221;48.858;10.128;2022-09-23T11:39:22;2.90;;;2.70;;
6376;SDS011;3221;48.858;10.128;2022-09-23T11:41:54;2.53;;;2.33;;
6376;SDS011;3221;48.858;10.128;2022-09-23T11:44:41;4.57;;;2.97;;
6376;SDS011;3221;48.858;10.128;2022-09-23T11:47:15;3.10;;;2.90;;
6376;SDS011;3221;48.858;10.128;2022-09-23T11:49:58;3.40;;;2.87;;
6376;SDS011;3221;48.858;10.128;2022-09-23T11:52:33;3.13;;;2.87;;
6376;SDS011;3221;48.858;10.128;2022-09-23T11:58:30;3.77;;;2.77;;
6376;SDS011;3221;48.858;10.128;2022-09-23T12:01:48;4.83;;;2.90;;
6376;SDS011;3221;48.858;10.128;2022-09-23T12:23:22;4.10;;;3.03;;
6376;SDS011;3221;48.858;10.128;2022-09-23T12:26:02;5.57;;;3.10;;
6376;SDS011;3221;48.858;10.128;2022-09-23T12:28:34;3.33;;;2.90;;
6376;SDS011;3221;48.858;10.128;2022-09-23T12:31:13;4.80;;;3.10;;
6376;SDS011;3221;48.858;10.128;2022-09-23T12:33:50;5.03;;;2.77;;
6376;SDS011;3221;48.858;10.128;2022-09-23T12:36:27;3.57;;;2.80;;
6376;SDS011;3221;48.858;10.128;2022-09-23T12:39:13;3.10;;;2.80;;
6376;SDS011;3221;48.858;10.128;2022-09-23T12:41:45;3.70;;;3.10;;
6376;SDS011;3221;48.858;10.128;2022-09-23T12:44:26;4.20;;;2.90;;
6376;SDS011;3221;48.858;10.128;2022-09-23T12:49:47;4.47;;;2.80;;
6376;SDS011;3221;48.858;10.128;2022-09-23T12:54:46;4.10;;;3.30;;
6376;SDS011;3221;48.858;10.128;2022-09-23T13:02:40;4.13;;;3.10;;
6376;SDS011;3221;48.858;10.128;2022-09-23T13:05:39;3.57;;;3.03;;
6376;SDS011;3221;48.858;10.128;2022-09-23T13:08:39;4.97;;;2.93;;
6376;SDS011;3221;48.858;10.128;2022-09-23T13:11:17;4.43;;;3.70;;
6376;SDS011;3221;48.858;10.128;2022-09-23T13:13:51;5.60;;;3.40;;
6376;SDS011;3221;48.858;10.128;2022-09-23T13:16:37;3.63;;;3.33;;
6376;SDS011;3221;48.858;10.128;2022-09-23T13:24:34;4.87;;;3.57;;
6376;SDS011;3221;48.858;10.128;2022-09-23T13:27:13;4.63;;;3.57;;
6376;SDS011;3221;48.858;10.128;2022-09-23T13:32:17;4.60;;;3.50;;
6376;SDS011;3221;48.858;10.128;2022-09-23T13:37:45;4.67;;;3.73;;
6376;SDS011;3221;48.858;10.128;2022-09-23T13:45:25;4.77;;;3.57;;
6376;SDS011;3221;48.858;10.128;2022-09-23T13:47:54;6.83;;;4.27;;
6376;SDS011;3221;48.858;10.128;2022-09-23T13:50:37;3.77;;;3.47;;
6376;SDS011;3221;48.858;10.128;2022-09-23T13:53:09;4.03;;;3.60;;
6376;SDS011;3221;48.858;10.128;2022-09-23T13:55:38;4.43;;;3.40;;
6376;SDS011;3221;48.858;10.128;2022-09-23T13:58:14;4.50;;;3.40;;
6376;SDS011;3221;48.858;10.128;2022-09-23T14:00:42;4.07;;;3.57;;
6376;SDS011;3221;48.858;10.128;2022-09-23T14:05:46;3.93;;;3.27;;
6376;SDS011;3221;48.858;10.128;2022-09-23T14:08:15;5.53;;;3.73;;
6376;SDS011;3221;48.858;10.128;2022-09-23T14:10:44;5.07;;;4.20;;
6376;SDS011;3221;48.858;10.128;2022-09-23T14:13:16;5.87;;;4.53;;
6376;SDS011;3221;48.858;10.128;2022-09-23T14:15:56;4.50;;;4.03;;
6376;SDS011;3221;48.858;10.128;2022-09-23T14:21:00;4.67;;;3.50;;
6376;SDS011;3221;48.858;10.128;2022-09-23T14:23:27;5.90;;;3.47;;
6376;SDS011;3221;48.858;10.128;2022-09-23T14:25:54;5.40;;;3.37;;
6376;SDS011;3221;48.858;10.128;2022-09-23T14:28:24;4.37;;;3.57;;
6376;SDS011;3221;48.858;10.128;2022-09-23T14:30:53;7.00;;;3.87;;
6376;SDS011;3221;48.858;10.128;2022-09-23T14:33:27;4.03;;;3.60;;
6376;SDS011;3221;48.858;10.128;2022-09-23T14:36:03;4.73;;;3.83;;
6376;SDS011;3221;48.858;10.128;2022-09-23T14:38:34;3.70;;;3.30;;
6376;SDS011;3221;48.858;10.128;2022-09-23T14:41:21;3.70;;;3.40;;
6376;SDS011;3221;48.858;10.128;2022-09-23T14:43:56;3.97;;;3.37;;
6376;SDS011;3221;48.858;10.128;2022-09-23T14:46:26;4.40;;;3.30;;
6376;SDS011;3221;48.858;10.128;2022-09-23T14:51:39;5.43;;;3.63;;
6376;SDS011;3221;48.858;10.128;2022-09-23T14:57:23;5.13;;;4.30;;
6376;SDS011;3221;48.858;10.128;2022-09-23T15:00:15;6.87;;;4.37;;
6376;SDS011;3221;48.858;10.128;2022-09-23T15:02:44;6.50;;;4.17;;
6376;SDS011;3221;48.858;10.128;2022-09-23T15:05:29;6.67;;;4.40;;
6376;SDS011;3221;48.858;10.128;2022-09-23T15:08:24;4.80;;;4.20;;
6376;SDS011;3221;48.858;10.128;2022-09-23T15:10:54;6.57;;;4.33;;
6376;SDS011;3221;48.858;10.128;2022-09-23T15:13:23;5.60;;;4.20;;
6376;SDS011;3221;48.858;10.128;2022-09-23T15:15:54;5.60;;;4.10;;
6376;SDS011;3221;48.858;10.128;2022-09-23T15:18:30;7.10;;;4.30;;
6376;SDS011;3221;48.858;10.128;2022-09-23T15:21:02;6.17;;;3.90;;
6376;SDS011;3221;48.858;10.128;2022-09-23T15:26:17;4.00;;;3.60;;
6376;SDS011;3221;48.858;10.128;2022-09-23T15:28:46;4.47;;;3.50;;
6376;SDS011;3221;48.858;10.128;2022-09-23T15:31:15;5.30;;;3.90;;
6376;SDS011;3221;48.858;10.128;2022-09-23T15:33:44;4.13;;;3.50;;
6376;SDS011;3221;48.858;10.128;2022-09-23T15:36:16;4.50;;;3.80;;
6376;SDS011;3221;48.858;10.128;2022-09-23T15:38:46;5.00;;;3.43;;
6376;SDS011;3221;48.858;10.128;2022-09-23T15:41:13;4.40;;;4.00;;
6376;SDS011;3221;48.858;10.128;2022-09-23T15:43:42;4.10;;;3.70;;
6376;SDS011;3221;48.858;10.128;2022-09-23T15:46:15;4.07;;;3.60;;
6376;SDS011;3221;48.858;10.128;2022-09-23T15:48:47;4.67;;;3.80;;
6376;SDS011;3221;48.858;10.128;2022-09-23T15:51:24;3.87;;;3.43;;
6376;SDS011;3221;48.858;10.128;2022-09-23T15:53:53;4.30;;;3.80;;
6376;SDS011;3221;48.858;10.128;2022-09-23T15:56:21;4.00;;;3.53;;
6376;SDS011;3221;48.858;10.128;2022-09-23T15:58:48;4.03;;;3.27;;
6376;SDS011;3221;48.858;10.128;2022-09-23T16:01:16;4.97;;;3.60;;
6376;SDS011;3221;48.858;10.128;2022-09-23T16:03:53;4.20;;;3.43;;
6376;SDS011;3221;48.858;10.128;2022-09-23T16:06:21;3.93;;;3.40;;
6376;SDS011;3221;48.858;10.128;2022-09-23T16:08:49;4.03;;;3.40;;
6376;SDS011;3221;48.858;10.128;2022-09-23T16:11:18;6.13;;;3.80;;
6376;SDS011;3221;48.858;10.128;2022-09-23T16:13:57;3.80;;;3.50;;
6376;SDS011;3221;48.858;10.128;2022-09-23T16:16:25;3.57;;;3.27;;
6376;SDS011;3221;48.858;10.128;2022-09-23T16:18:56;4.00;;;3.20;;
6376;SDS011;3221;48.858;10.128;2022-09-23T16:21:24;3.87;;;3.13;;
6376;SDS011;3221;48.858;10.128;2022-09-23T16:23:51;5.87;;;4.13;;
6376;SDS011;3221;48.858;10.128;2022-09-23T16:26:53;5.27;;;4.03;;
6376;SDS011;3221;48.858;10.128;2022-09-23T16:29:13;3.50;;;3.20;;
6376;SDS011;3221;48.858;10.128;2022-09-23T16:31:41;5.40;;;3.20;;
6376;SDS011;3221;48.858;10.128;2022-09-23T16:34:08;3.47;;;3.20;;
6376;SDS011;3221;48.858;10.128;2022-09-23T16:36:39;4.30;;;3.40;;
6376;SDS011;3221;48.858;10.128;2022-09-23T16:39:09;3.40;;;3.10;;
6376;SDS011;3221;48.858;10.128;2022-09-23T16:41:38;5.93;;;3.10;;
6376;SDS011;3221;48.858;10.128;2022-09-23T16:44:05;3.43;;;3.13;;
6376;SDS011;3221;48.858;10.128;2022-09-23T16:46:34;3.60;;;3.30;;
6376;SDS011;3221;48.858;10.128;2022-09-23T16:49:02;3.40;;;3.10;;
6376;SDS011;3221;48.858;10.128;2022-09-23T16:51:31;3.80;;;3.37;;
6376;SDS011;3221;48.858;10.128;2022-09-23T16:54:09;4.10;;;3.60;;
6376;SDS011;3221;48.858;10.128;2022-09-23T16:56:40;5.93;;;3.63;;
6376;SDS011;3221;48.858;10.128;2022-09-23T16:59:12;4.57;;;4.13;;
6376;SDS011;3221;48.858;10.128;2022-09-23T17:01:41;3.70;;;3.40;;
6376;SDS011;3221;48.858;10.128;2022-09-23T17:04:29;4.93;;;3.63;;
6376;SDS011;3221;48.858;10.128;2022-09-23T17:06:57;3.93;;;3.50;;
6376;SDS011;3221;48.858;10.128;2022-09-23T17:09:26;3.60;;;3.20;;
6376;SDS011;3221;48.858;10.128;2022-09-23T17:11:57;4.17;;;3.47;;
6376;SDS011;3221;48.858;10.128;2022-09-23T17:14:41;4.37;;;3.50;;
6376;SDS011;3221;48.858;10.128;2022-09-23T17:17:10;7.07;;;3.40;;
6376;SDS011;3221;48.858;10.128;2022-09-23T17:19:37;4.97;;;3.37;;
6376;SDS011;3221;48.858;10.128;2022-09-23T17:22:06;4.47;;;3.70;;
6376;SDS011;3221;48.858;10.128;2022-09-23T17:24:34;8.80;;;3.63;;
6376;SDS011;3221;48.858;10.128;2022-09-23T17:27:01;4.97;;;3.23;;
6376;SDS011;3221;48.858;10.128;2022-09-23T17:29:28;6.33;;;3.80;;
6376;SDS011;3221;48.858;10.128;2022-09-23T17:31:55;7.97;;;3.73;;
6376;SDS011;3221;48.858;10.128;2022-09-23T17:34:23;4.50;;;3.73;;
6376;SDS011;3221;48.858;10.128;2022-09-23T17:36:50;5.07;;;3.47;;
6376;SDS011;3221;48.858;10.128;2022-09-23T17:39:17;4.93;;;3.50;;
6376;SDS011;3221;48.858;10.128;2022-09-23T17:41:44;6.07;;;3.60;;
6376;SDS011;3221;48.858;10.128;2022-09-23T17:44:11;6.07;;;3.00;;
6376;SDS011;3221;48.858;10.128;2022-09-23T17:46:38;6.20;;;3.30;;
6376;SDS011;3221;48.858;10.128;2022-09-23T17:49:05;3.80;;;2.97;;
6376;SDS011;3221;48.858;10.128;2022-09-23T17:51:33;4.80;;;3.20;;
6376;SDS011;3221;48.858;10.128;2022-09-23T17:54:00;3.70;;;3.23;;
6376;SDS011;3221;48.858;10.128;2022-09-23T17:56:27;4.43;;;3.40;;
6376;SDS011;3221;48.858;10.128;2022-09-23T17:58:58;3.53;;;3.23;;
6376;SDS011;3221;48.858;10.128;2022-09-23T18:01:27;6.40;;;3.17;;
6376;SDS011;3221;48.858;10.128;2022-09-23T18:03:55;4.23;;;3.17;;
6376;SDS011;3221;48.858;10.128;2022-09-23T18:06:24;4.13;;;3.37;;
6376;SDS011;3221;48.858;10.128;2022-09-23T18:08:53;3.87;;;3.50;;
6376;SDS011;3221;48.858;10.128;2022-09-23T18:11:23;5.47;;;3.30;;
6376;SDS011;3221;48.858;10.128;2022-09-23T18:13:53;5.27;;;3.43;;
6376;SDS011;3221;48.858;10.128;2022-09-23T18:16:22;4.47;;;3.80;;
6376;SDS011;3221;48.858;10.128;2022-09-23T18:18:58;4.23;;;3.83;;
6376;SDS011;3221;48.858;10.128;2022-09-23T18:21:28;4.97;;;3.93;;
6376;SDS011;3221;48.858;10.128;2022-09-23T18:23:57;4.90;;;3.53;;
6376;SDS011;3221;48.858;10.128;2022-09-23T18:26:45;3.97;;;3.40;;